sensor_id;sensor_type;location;lat;lon;timestamp;pressure;altitude;pressure_sealevel;temperature;humidity
73600;BME280;61877;48.246;9.220;2023-04-01T00:00:03;92953.44;;;6.19;94.54
73600;BME280;61877;48.246;9.220;2023-04-01T00:02:28;92954.63;;;6.22;93.55
73600;BME280;61877;48.246;9.220;2023-04-01T00:04:55;92946.13;;;6.16;93.76
73600;BME280;61877;48.246;9.220;2023-04-01T00:07:21;92947.66;;;6.17;93.44
73600;BME280;61877;48.246;9.220;2023-04-01T00:09:46;92957.53;;;6.17;93.76
73600;BME280;61877;48.246;9.220;2023-04-01T00:12:12;92957.44;;;6.13;94.58
73600;BME280;61877;48.246;9.220;2023-04-01T00:14:37;92954.13;;;6.16;95.57
73600;BME280;61877;48.246;9.220;2023-04-01T00:17:03;92952.19;;;6.17;95.26
73600;BME280;61877;48.246;9.220;2023-04-01T00:19:28;92951.13;;;6.18;95.14
73600;BME280;61877;48.246;9.220;2023-04-01T00:21:55;92944.66;;;6.19;95.38
73600;BME280;61877;48.246;9.220;2023-04-01T00:24:20;92945.56;;;6.11;94.02
73600;BME280;61877;48.246;9.220;2023-04-01T00:26:48;92953.31;;;6.16;95.54
73600;BME280;61877;48.246;9.220;2023-04-01T00:29:14;92948.78;;;6.16;95.02
73600;BME280;61877;48.246;9.220;2023-04-01T00:31:39;92946.66;;;6.22;95.43
73600;BME280;61877;48.246;9.220;2023-04-01T00:34:05;92947.44;;;6.22;96.13
73600;BME280;61877;48.246;9.220;2023-04-01T00:36:30;92954.31;;;6.23;95.25
73600;BME280;61877;48.246;9.220;2023-04-01T00:38:58;92950.41;;;6.33;93.85
73600;BME280;61877;48.246;9.220;2023-04-01T00:41:24;92959.38;;;6.28;94.42
73600;BME280;61877;48.246;9.220;2023-04-01T00:43:50;92952.53;;;6.27;94.81
73600;BME280;61877;48.246;9.220;2023-04-01T00:46:16;92957.06;;;6.27;94.44
73600;BME280;61877;48.246;9.220;2023-04-01T00:48:43;92953.00;;;6.17;92.90
73600;BME280;61877;48.246;9.220;2023-04-01T00:51:14;92956.19;;;6.23;94.10
73600;BME280;61877;48.246;9.220;2023-04-01T00:53:43;92950.88;;;6.23;93.55
73600;BME280;61877;48.246;9.220;2023-04-01T00:56:13;92953.44;;;6.19;94.27
73600;BME280;61877;48.246;9.220;2023-04-01T00:58:42;92957.63;;;6.20;94.51
73600;BME280;61877;48.246;9.220;2023-04-01T01:01:09;92956.19;;;6.23;95.30
73600;BME280;61877;48.246;9.220;2023-04-01T01:03:35;92960.28;;;6.20;94.67
73600;BME280;61877;48.246;9.220;2023-04-01T01:06:24;92958.31;;;6.17;94.21
73600;BME280;61877;48.246;9.220;2023-04-01T01:09:13;92966.53;;;6.12;93.31
73600;BME280;61877;48.246;9.220;2023-04-01T01:14:55;92953.00;;;6.17;94.53
73600;BME280;61877;48.246;9.220;2023-04-01T01:17:32;92956.78;;;6.16;93.17
73600;BME280;61877;48.246;9.220;2023-04-01T01:20:48;92956.78;;;6.16;94.29
73600;BME280;61877;48.246;9.220;2023-04-01T01:23:38;92953.56;;;6.11;90.37
73600;BME280;61877;48.246;9.220;2023-04-01T01:26:29;92955.31;;;6.19;92.70
73600;BME280;61877;48.246;9.220;2023-04-01T01:29:06;92950.22;;;6.14;90.71
73600;BME280;61877;48.246;9.220;2023-04-01T01:31:45;92955.88;;;6.12;89.33
73600;BME280;61877;48.246;9.220;2023-04-01T01:34:20;92949.47;;;6.13;91.11
73600;BME280;61877;48.246;9.220;2023-04-01T01:36:52;92950.56;;;6.12;92.20
73600;BME280;61877;48.246;9.220;2023-04-01T01:39:21;92949.25;;;6.06;92.68
73600;BME280;61877;48.246;9.220;2023-04-01T01:41:49;92940.38;;;6.02;93.24
73600;BME280;61877;48.246;9.220;2023-04-01T01:44:15;92938.16;;;6.04;92.28
73600;BME280;61877;48.246;9.220;2023-04-01T01:46:42;92936.84;;;5.98;93.18
73600;BME280;61877;48.246;9.220;2023-04-01T01:49:10;92932.72;;;6.01;94.09
73600;BME280;61877;48.246;9.220;2023-04-01T01:51:38;92930.41;;;5.99;93.24
73600;BME280;61877;48.246;9.220;2023-04-01T01:54:05;92928.19;;;6.01;94.30
73600;BME280;61877;48.246;9.220;2023-04-01T01:56:30;92928.09;;;5.98;94.50
73600;BME280;61877;48.246;9.220;2023-04-01T01:59:00;92932.97;;;5.96;91.21
73600;BME280;61877;48.246;9.220;2023-04-01T02:01:30;92923.66;;;6.02;91.21
73600;BME280;61877;48.246;9.220;2023-04-01T02:03:57;92929.63;;;5.99;91.56
73600;BME280;61877;48.246;9.220;2023-04-01T02:06:26;92932.28;;;5.99;91.62
73600;BME280;61877;48.246;9.220;2023-04-01T02:08:55;92937.94;;;5.97;93.33
73600;BME280;61877;48.246;9.220;2023-04-01T02:11:26;92932.41;;;5.90;91.82
73600;BME280;61877;48.246;9.220;2023-04-01T02:13:55;92925.09;;;5.87;91.69
73600;BME280;61877;48.246;9.220;2023-04-01T02:16:26;92928.53;;;5.88;93.17
73600;BME280;61877;48.246;9.220;2023-04-01T02:18:55;92930.44;;;5.87;92.51
73600;BME280;61877;48.246;9.220;2023-04-01T02:21:24;92932.41;;;5.78;91.41
73600;BME280;61877;48.246;9.220;2023-04-01T02:23:53;92926.19;;;5.74;92.60
73600;BME280;61877;48.246;9.220;2023-04-01T02:26:20;92951.94;;;5.82;92.79
73600;BME280;61877;48.246;9.220;2023-04-01T02:28:48;92949.94;;;5.79;92.45
73600;BME280;61877;48.246;9.220;2023-04-01T02:31:16;92961.34;;;5.80;94.07
73600;BME280;61877;48.246;9.220;2023-04-01T02:33:42;92956.94;;;5.72;93.70
73600;BME280;61877;48.246;9.220;2023-04-01T02:36:11;92967.69;;;5.75;93.98
73600;BME280;61877;48.246;9.220;2023-04-01T02:38:37;92963.25;;;5.55;91.73
73600;BME280;61877;48.246;9.220;2023-04-01T02:41:03;92964.00;;;5.68;92.12
73600;BME280;61877;48.246;9.220;2023-04-01T02:43:29;92952.50;;;5.64;93.05
73600;BME280;61877;48.246;9.220;2023-04-01T02:45:56;92967.34;;;5.65;93.05
73600;BME280;61877;48.246;9.220;2023-04-01T02:48:21;92962.81;;;5.65;94.37
73600;BME280;61877;48.246;9.220;2023-04-01T02:50:47;92959.47;;;5.56;93.10
73600;BME280;61877;48.246;9.220;2023-04-01T02:53:12;92954.03;;;5.53;92.99
73600;BME280;61877;48.246;9.220;2023-04-01T02:55:38;92952.50;;;5.52;93.89
73600;BME280;61877;48.246;9.220;2023-04-01T02:58:04;92943.97;;;5.46;92.38
73600;BME280;61877;48.246;9.220;2023-04-01T03:00:29;92937.22;;;5.49;91.89
73600;BME280;61877;48.246;9.220;2023-04-01T03:02:56;92935.13;;;5.42;92.10
73600;BME280;61877;48.246;9.220;2023-04-01T03:05:22;92936.66;;;5.43;91.58
73600;BME280;61877;48.246;9.220;2023-04-01T03:07:48;92933.09;;;5.39;92.94
73600;BME280;61877;48.246;9.220;2023-04-01T03:10:13;92925.56;;;5.41;89.80
73600;BME280;61877;48.246;9.220;2023-04-01T03:12:39;92916.81;;;5.41;92.50
73600;BME280;61877;48.246;9.220;2023-04-01T03:15:05;92918.16;;;5.35;92.38
73600;BME280;61877;48.246;9.220;2023-04-01T03:17:31;92921.47;;;5.32;92.52
73600;BME280;61877;48.246;9.220;2023-04-01T03:19:58;92916.38;;;5.26;93.82
73600;BME280;61877;48.246;9.220;2023-04-01T03:22:23;92921.56;;;5.23;94.12
73600;BME280;61877;48.246;9.220;2023-04-01T03:24:49;92929.66;;;5.26;94.50
73600;BME280;61877;48.246;9.220;2023-04-01T03:27:15;92921.38;;;5.28;94.83
73600;BME280;61877;48.246;9.220;2023-04-01T03:29:43;92935.44;;;5.28;95.41
73600;BME280;61877;48.246;9.220;2023-04-01T03:32:08;92932.66;;;5.25;94.30
73600;BME280;61877;48.246;9.220;2023-04-01T03:34:34;92938.84;;;5.29;94.28
73600;BME280;61877;48.246;9.220;2023-04-01T03:37:01;92936.97;;;5.29;95.42
73600;BME280;61877;48.246;9.220;2023-04-01T03:39:26;92936.88;;;5.26;95.49
73600;BME280;61877;48.246;9.220;2023-04-01T03:41:51;92934.78;;;5.32;94.64
73600;BME280;61877;48.246;9.220;2023-04-01T03:44:17;92936.53;;;5.40;95.37
73600;BME280;61877;48.246;9.220;2023-04-01T03:46:42;92939.97;;;5.40;95.17
73600;BME280;61877;48.246;9.220;2023-04-01T03:49:09;92938.53;;;5.43;95.05
73600;BME280;61877;48.246;9.220;2023-04-01T03:51:34;92940.97;;;5.48;95.29
73600;BME280;61877;48.246;9.220;2023-04-01T03:54:01;92934.91;;;5.47;95.71
73600;BME280;61877;48.246;9.220;2023-04-01T03:56:27;92923.25;;;5.52;96.13
73600;BME280;61877;48.246;9.220;2023-04-01T03:58:52;92922.78;;;5.50;95.25
73600;BME280;61877;48.246;9.220;2023-04-01T04:01:19;92932.09;;;5.56;95.20
73600;BME280;61877;48.246;9.220;2023-04-01T04:06:48;92922.56;;;5.55;95.63
73600;BME280;61877;48.246;9.220;2023-04-01T04:09:15;92912.94;;;5.50;95.30
73600;BME280;61877;48.246;9.220;2023-04-01T04:11:40;92911.81;;;5.51;96.14
73600;BME280;61877;48.246;9.220;2023-04-01T04:14:06;92911.03;;;5.51;96.72
73600;BME280;61877;48.246;9.220;2023-04-01T04:16:31;92914.94;;;5.53;96.66
73600;BME280;61877;48.246;9.220;2023-04-01T04:18:56;92913.69;;;5.51;97.38
73600;BME280;61877;48.246;9.220;2023-04-01T04:21:22;92919.25;;;5.58;95.44
73600;BME280;61877;48.246;9.220;2023-04-01T04:23:47;92919.34;;;5.61;94.87
73600;BME280;61877;48.246;9.220;2023-04-01T04:26:15;92915.50;;;5.59;95.01
73600;BME280;61877;48.246;9.220;2023-04-01T04:28:40;92922.25;;;5.56;96.29
73600;BME280;61877;48.246;9.220;2023-04-01T04:31:06;92925.91;;;5.52;94.21
73600;BME280;61877;48.246;9.220;2023-04-01T04:33:32;92923.59;;;5.50;95.34
73600;BME280;61877;48.246;9.220;2023-04-01T04:35:58;92915.28;;;5.52;96.07
73600;BME280;61877;48.246;9.220;2023-04-01T04:38:24;92923.59;;;5.50;94.90
73600;BME280;61877;48.246;9.220;2023-04-01T04:40:50;92925.91;;;5.52;94.86
73600;BME280;61877;48.246;9.220;2023-04-01T04:43:17;92930.00;;;5.49;94.65
73600;BME280;61877;48.246;9.220;2023-04-01T04:45:44;92927.56;;;5.56;92.09
73600;BME280;61877;48.246;9.220;2023-04-01T04:48:10;92925.91;;;5.64;92.47
73600;BME280;61877;48.246;9.220;2023-04-01T04:50:36;92935.09;;;5.54;92.86
73600;BME280;61877;48.246;9.220;2023-04-01T04:53:02;92928.00;;;5.46;93.69
73600;BME280;61877;48.246;9.220;2023-04-01T04:55:28;92930.09;;;5.41;94.23
73600;BME280;61877;48.246;9.220;2023-04-01T04:57:53;92931.09;;;5.24;92.63
73600;BME280;61877;48.246;9.220;2023-04-01T05:00:20;92926.34;;;5.29;93.75
73600;BME280;61877;48.246;9.220;2023-04-01T05:02:45;92921.13;;;5.33;94.28
73600;BME280;61877;48.246;9.220;2023-04-01T05:05:14;92931.31;;;5.31;93.45
73600;BME280;61877;48.246;9.220;2023-04-01T05:07:39;92927.56;;;5.32;93.37
73600;BME280;61877;48.246;9.220;2023-04-01T05:10:05;92926.25;;;5.38;94.25
73600;BME280;61877;48.246;9.220;2023-04-01T05:12:31;92929.88;;;5.46;91.88
73600;BME280;61877;48.246;9.220;2023-04-01T05:14:56;92933.75;;;5.36;91.73
73600;BME280;61877;48.246;9.220;2023-04-01T05:17:23;92938.88;;;5.41;92.58
73600;BME280;61877;48.246;9.220;2023-04-01T05:19:49;92930.56;;;5.43;92.61
73600;BME280;61877;48.246;9.220;2023-04-01T05:22:19;92935.88;;;5.43;92.62
73600;BME280;61877;48.246;9.220;2023-04-01T05:24:47;92933.78;;;5.48;92.79
73600;BME280;61877;48.246;9.220;2023-04-01T05:27:12;92924.00;;;5.52;91.69
73600;BME280;61877;48.246;9.220;2023-04-01T05:29:38;92924.91;;;5.56;91.17
73600;BME280;61877;48.246;9.220;2023-04-01T05:32:03;92922.47;;;5.63;91.91
73600;BME280;61877;48.246;9.220;2023-04-01T05:34:30;92927.09;;;5.66;92.51
73600;BME280;61877;48.246;9.220;2023-04-01T05:36:56;92918.44;;;5.69;92.84
73600;BME280;61877;48.246;9.220;2023-04-01T05:39:21;92905.03;;;5.78;92.73
73600;BME280;61877;48.246;9.220;2023-04-01T05:41:47;92911.38;;;5.85;91.05
73600;BME280;61877;48.246;9.220;2023-04-01T05:44:12;92905.47;;;5.92;91.51
73600;BME280;61877;48.246;9.220;2023-04-01T05:46:38;92905.25;;;5.97;92.00
73600;BME280;61877;48.246;9.220;2023-04-01T05:49:03;92905.53;;;6.07;91.73
73600;BME280;61877;48.246;9.220;2023-04-01T05:51:30;92909.38;;;6.22;91.69
73600;BME280;61877;48.246;9.220;2023-04-01T05:53:56;92908.47;;;6.30;91.54
73600;BME280;61877;48.246;9.220;2023-04-01T05:56:21;92911.31;;;6.37;91.25
73600;BME280;61877;48.246;9.220;2023-04-01T05:58:50;92913.63;;;6.38;91.12
73600;BME280;61877;48.246;9.220;2023-04-01T06:01:16;92910.06;;;6.46;90.74
73600;BME280;61877;48.246;9.220;2023-04-01T06:03:42;92909.25;;;6.58;89.22
73600;BME280;61877;48.246;9.220;2023-04-01T06:06:13;92901.78;;;6.79;88.48
73600;BME280;61877;48.246;9.220;2023-04-01T06:08:41;92904.31;;;6.88;89.81
73600;BME280;61877;48.246;9.220;2023-04-01T06:11:19;92908.41;;;6.85;89.97
73600;BME280;61877;48.246;9.220;2023-04-01T06:13:58;92898.19;;;6.87;87.63
73600;BME280;61877;48.246;9.220;2023-04-01T06:16:35;92900.84;;;6.87;88.02
73600;BME280;61877;48.246;9.220;2023-04-01T06:19:14;92904.91;;;6.81;89.00
73600;BME280;61877;48.246;9.220;2023-04-01T06:22:06;92904.81;;;7.09;88.74
73600;BME280;61877;48.246;9.220;2023-04-01T06:24:45;92895.88;;;7.01;85.50
73600;BME280;61877;48.246;9.220;2023-04-01T06:27:20;92901.69;;;6.76;85.21
73600;BME280;61877;48.246;9.220;2023-04-01T06:29:59;92909.97;;;6.86;86.97
73600;BME280;61877;48.246;9.220;2023-04-01T06:32:57;92896.19;;;7.00;86.35
73600;BME280;61877;48.246;9.220;2023-04-01T06:35:36;92898.72;;;7.24;86.91
73600;BME280;61877;48.246;9.220;2023-04-01T06:38:27;92896.13;;;7.27;85.78
73600;BME280;61877;48.246;9.220;2023-04-01T06:41:21;92902.13;;;7.40;84.04
73600;BME280;61877;48.246;9.220;2023-04-01T06:43:59;92898.09;;;7.46;83.12
73600;BME280;61877;48.246;9.220;2023-04-01T06:46:36;92900.56;;;7.54;84.50
73600;BME280;61877;48.246;9.220;2023-04-01T06:49:20;92896.81;;;7.40;85.56
73600;BME280;61877;48.246;9.220;2023-04-01T06:51:51;92898.34;;;7.10;83.83
73600;BME280;61877;48.246;9.220;2023-04-01T06:54:20;92899.41;;;7.21;86.73
73600;BME280;61877;48.246;9.220;2023-04-01T06:56:52;92904.56;;;7.29;84.77
73600;BME280;61877;48.246;9.220;2023-04-01T06:59:22;92897.41;;;7.49;84.26
73600;BME280;61877;48.246;9.220;2023-04-01T07:01:52;92902.72;;;7.64;85.49
73600;BME280;61877;48.246;9.220;2023-04-01T07:07:41;92885.13;;;7.79;82.73
73600;BME280;61877;48.246;9.220;2023-04-01T07:10:19;92893.50;;;7.97;85.32
73600;BME280;61877;48.246;9.220;2023-04-01T07:54:33;92908.53;;;8.39;81.56
73600;BME280;61877;48.246;9.220;2023-04-01T07:57:07;92912.47;;;8.64;82.42
73600;BME280;61877;48.246;9.220;2023-04-01T07:59:42;92913.81;;;8.55;79.07
73600;BME280;61877;48.246;9.220;2023-04-01T08:02:18;92907.91;;;8.46;81.63
73600;BME280;61877;48.246;9.220;2023-04-01T08:05:00;92907.28;;;8.33;81.31
73600;BME280;61877;48.246;9.220;2023-04-01T08:07:49;92912.47;;;8.26;80.38
73600;BME280;61877;48.246;9.220;2023-04-01T08:10:25;92909.53;;;8.31;80.93
73600;BME280;61877;48.246;9.220;2023-04-01T08:16:06;92911.06;;;7.98;81.49
73600;BME280;61877;48.246;9.220;2023-04-01T08:18:43;92908.47;;;8.36;83.28
73600;BME280;61877;48.246;9.220;2023-04-01T08:21:13;92914.66;;;8.21;81.65
73600;BME280;61877;48.246;9.220;2023-04-01T08:23:43;92914.25;;;8.38;80.67
73600;BME280;61877;48.246;9.220;2023-04-01T08:26:15;92916.19;;;8.22;80.12
73600;BME280;61877;48.246;9.220;2023-04-01T08:28:51;92914.78;;;7.93;80.27
73600;BME280;61877;48.246;9.220;2023-04-01T08:31:23;92918.06;;;8.02;80.35
73600;BME280;61877;48.246;9.220;2023-04-01T08:33:53;92924.91;;;7.84;79.29
73600;BME280;61877;48.246;9.220;2023-04-01T08:36:22;92927.72;;;7.91;80.66
73600;BME280;61877;48.246;9.220;2023-04-01T08:38:52;92921.00;;;7.97;80.33
73600;BME280;61877;48.246;9.220;2023-04-01T08:41:46;92924.50;;;8.01;78.90
73600;BME280;61877;48.246;9.220;2023-04-01T08:44:31;92926.28;;;8.13;80.36
73600;BME280;61877;48.246;9.220;2023-04-01T08:47:38;92925.41;;;7.89;81.43
73600;BME280;61877;48.246;9.220;2023-04-01T08:50:28;92915.59;;;7.78;80.29
73600;BME280;61877;48.246;9.220;2023-04-01T08:53:00;92929.56;;;7.87;78.50
73600;BME280;61877;48.246;9.220;2023-04-01T08:55:37;92922.16;;;7.80;80.21
73600;BME280;61877;48.246;9.220;2023-04-01T08:58:26;92918.50;;;8.04;79.94
73600;BME280;61877;48.246;9.220;2023-04-01T09:00:57;92926.28;;;8.28;81.44
73600;BME280;61877;48.246;9.220;2023-04-01T09:03:40;92921.63;;;8.25;80.30
73600;BME280;61877;48.246;9.220;2023-04-01T09:06:22;92931.06;;;8.38;79.66
73600;BME280;61877;48.246;9.220;2023-04-01T09:09:29;92927.69;;;8.07;79.44
73600;BME280;61877;48.246;9.220;2023-04-01T09:15:26;92931.97;;;8.11;79.79
73600;BME280;61877;48.246;9.220;2023-04-01T09:18:33;92947.19;;;7.92;77.33
73600;BME280;61877;48.246;9.220;2023-04-01T09:21:15;92940.41;;;7.94;80.89
73600;BME280;61877;48.246;9.220;2023-04-01T09:24:07;92940.97;;;8.03;78.93
73600;BME280;61877;48.246;9.220;2023-04-01T09:26:58;92938.38;;;8.07;78.35
73600;BME280;61877;48.246;9.220;2023-04-01T09:32:48;92935.53;;;8.72;79.28
73600;BME280;61877;48.246;9.220;2023-04-01T09:35:24;92949.28;;;8.71;77.64
73600;BME280;61877;48.246;9.220;2023-04-01T09:37:57;92940.22;;;8.75;75.12
73600;BME280;61877;48.246;9.220;2023-04-01T09:40:34;92950.91;;;8.37;77.50
73600;BME280;61877;48.246;9.220;2023-04-01T09:43:16;92944.34;;;8.92;77.98
73600;BME280;61877;48.246;9.220;2023-04-01T09:52:01;92943.22;;;9.15;77.24
73600;BME280;61877;48.246;9.220;2023-04-01T09:54:52;92948.13;;;8.91;77.16
73600;BME280;61877;48.246;9.220;2023-04-01T09:58:02;92957.72;;;8.73;77.73
73600;BME280;61877;48.246;9.220;2023-04-01T10:04:00;92946.47;;;8.45;77.64
73600;BME280;61877;48.246;9.220;2023-04-01T10:07:01;92950.19;;;8.59;80.36
73600;BME280;61877;48.246;9.220;2023-04-01T10:10:00;92958.47;;;8.35;77.36
73600;BME280;61877;48.246;9.220;2023-04-01T10:13:04;92965.59;;;8.12;80.95
73600;BME280;61877;48.246;9.220;2023-04-01T10:18:51;92957.72;;;8.73;83.44
73600;BME280;61877;48.246;9.220;2023-04-01T10:21:46;92953.50;;;8.18;80.32
73600;BME280;61877;48.246;9.220;2023-04-01T10:24:45;92960.25;;;8.12;78.98
73600;BME280;61877;48.246;9.220;2023-04-01T10:30:42;92964.88;;;8.15;78.91
73600;BME280;61877;48.246;9.220;2023-04-01T10:33:53;92959.09;;;7.78;81.38
73600;BME280;61877;48.246;9.220;2023-04-01T10:36:52;92960.47;;;7.88;79.66
73600;BME280;61877;48.246;9.220;2023-04-01T10:48:50;92958.94;;;7.71;82.88
73600;BME280;61877;48.246;9.220;2023-04-01T10:51:38;92956.97;;;7.53;83.80
73600;BME280;61877;48.246;9.220;2023-04-01T10:54:22;92958.59;;;7.73;85.79
73600;BME280;61877;48.246;9.220;2023-04-01T10:56:59;92965.88;;;7.92;86.53
73600;BME280;61877;48.246;9.220;2023-04-01T10:59:59;92966.00;;;8.14;84.03
73600;BME280;61877;48.246;9.220;2023-04-01T11:11:50;92964.81;;;8.46;81.04
73600;BME280;61877;48.246;9.220;2023-04-01T11:14:38;92972.47;;;8.29;82.02
73600;BME280;61877;48.246;9.220;2023-04-01T11:17:30;92981.38;;;7.86;83.66
73600;BME280;61877;48.246;9.220;2023-04-01T11:20:17;92972.00;;;7.92;84.67
73600;BME280;61877;48.246;9.220;2023-04-01T11:23:00;92977.13;;;8.16;85.60
73600;BME280;61877;48.246;9.220;2023-04-01T11:25:50;92982.19;;;8.21;83.65
73600;BME280;61877;48.246;9.220;2023-04-01T11:28:50;92975.41;;;8.24;83.38
73600;BME280;61877;48.246;9.220;2023-04-01T11:31:32;92971.50;;;8.21;81.09
73600;BME280;61877;48.246;9.220;2023-04-01T11:34:07;92978.03;;;8.39;84.23
73600;BME280;61877;48.246;9.220;2023-04-01T11:36:45;92979.59;;;8.59;83.84
73600;BME280;61877;48.246;9.220;2023-04-01T11:39:24;92979.59;;;8.40;82.46
73600;BME280;61877;48.246;9.220;2023-04-01T11:42:03;92975.34;;;8.39;80.48
73600;BME280;61877;48.246;9.220;2023-04-01T11:44:35;92979.63;;;8.25;80.65
73600;BME280;61877;48.246;9.220;2023-04-01T11:47:18;92975.63;;;7.84;81.82
73600;BME280;61877;48.246;9.220;2023-04-01T11:49:58;92968.50;;;7.57;82.26
73600;BME280;61877;48.246;9.220;2023-04-01T11:52:50;92985.38;;;7.76;82.06
73600;BME280;61877;48.246;9.220;2023-04-01T11:55:25;92972.97;;;7.68;83.31
73600;BME280;61877;48.246;9.220;2023-04-01T11:58:10;92986.09;;;8.08;86.40
73600;BME280;61877;48.246;9.220;2023-04-01T12:01:04;92989.69;;;8.31;83.04
73600;BME280;61877;48.246;9.220;2023-04-01T12:03:46;92977.63;;;8.56;80.71
73600;BME280;61877;48.246;9.220;2023-04-01T12:06:20;92983.09;;;8.44;80.35
73600;BME280;61877;48.246;9.220;2023-04-01T12:09:08;92984.81;;;8.71;80.74
73600;BME280;61877;48.246;9.220;2023-04-01T12:11:50;92977.78;;;8.63;80.99
73600;BME280;61877;48.246;9.220;2023-04-01T12:14:20;92982.47;;;9.08;83.67
73600;BME280;61877;48.246;9.220;2023-04-01T12:16:56;92987.75;;;8.85;80.05
73600;BME280;61877;48.246;9.220;2023-04-01T12:19:31;92974.75;;;8.65;79.60
73600;BME280;61877;48.246;9.220;2023-04-01T12:22:17;92996.69;;;8.93;78.51
73600;BME280;61877;48.246;9.220;2023-04-01T12:24:51;92990.13;;;9.09;77.91
73600;BME280;61877;48.246;9.220;2023-04-01T12:27:37;92994.25;;;9.03;79.48
73600;BME280;61877;48.246;9.220;2023-04-01T12:30:34;92984.75;;;8.87;77.87
73600;BME280;61877;48.246;9.220;2023-04-01T12:33:15;93003.66;;;9.17;78.63
73600;BME280;61877;48.246;9.220;2023-04-01T12:35:55;93000.56;;;8.95;79.28
73600;BME280;61877;48.246;9.220;2023-04-01T12:38:31;93000.84;;;8.90;80.79
73600;BME280;61877;48.246;9.220;2023-04-01T12:41:14;92990.44;;;8.66;79.30
73600;BME280;61877;48.246;9.220;2023-04-01T12:47:06;93002.53;;;8.60;81.48
73600;BME280;61877;48.246;9.220;2023-04-01T12:52:43;93001.69;;;8.56;83.86
73600;BME280;61877;48.246;9.220;2023-04-01T12:55:33;92998.28;;;8.40;82.14
73600;BME280;61877;48.246;9.220;2023-04-01T12:58:30;93011.03;;;8.66;82.75
73600;BME280;61877;48.246;9.220;2023-04-01T13:01:19;93004.06;;;8.42;80.26
73600;BME280;61877;48.246;9.220;2023-04-01T13:04:10;93000.53;;;8.57;80.59
73600;BME280;61877;48.246;9.220;2023-04-01T13:06:50;93005.25;;;8.45;79.21
73600;BME280;61877;48.246;9.220;2023-04-01T13:09:29;93010.00;;;8.36;80.38
73600;BME280;61877;48.246;9.220;2023-04-01T13:12:16;93008.31;;;8.81;81.00
73600;BME280;61877;48.246;9.220;2023-04-01T13:15:12;93002.25;;;9.03;80.42
73600;BME280;61877;48.246;9.220;2023-04-01T13:17:48;93009.88;;;9.66;77.86
73600;BME280;61877;48.246;9.220;2023-04-01T13:20:24;93009.22;;;9.50;76.63
73600;BME280;61877;48.246;9.220;2023-04-01T13:23:01;92995.78;;;9.69;73.87
73600;BME280;61877;48.246;9.220;2023-04-01T13:25:36;93005.28;;;9.44;74.19
73600;BME280;61877;48.246;9.220;2023-04-01T13:28:11;93028.44;;;8.94;73.90
73600;BME280;61877;48.246;9.220;2023-04-01T13:30:46;93001.56;;;9.06;74.01
73600;BME280;61877;48.246;9.220;2023-04-01T13:51:21;93014.22;;;10.19;69.71
73600;BME280;61877;48.246;9.220;2023-04-01T13:54:20;93018.53;;;10.27;68.37
73600;BME280;61877;48.246;9.220;2023-04-01T13:56:57;93004.06;;;9.83;68.47
73600;BME280;61877;48.246;9.220;2023-04-01T13:59:46;93017.81;;;9.81;69.61
73600;BME280;61877;48.246;9.220;2023-04-01T14:02:37;93031.34;;;9.92;70.33
73600;BME280;61877;48.246;9.220;2023-04-01T14:05:47;93028.28;;;10.12;69.06
73600;BME280;61877;48.246;9.220;2023-04-01T14:08:26;93030.25;;;9.93;68.98
73600;BME280;61877;48.246;9.220;2023-04-01T14:11:06;93026.31;;;9.64;69.73
73600;BME280;61877;48.246;9.220;2023-04-01T14:13:41;93038.19;;;9.44;68.41
73600;BME280;61877;48.246;9.220;2023-04-01T14:16:31;93036.28;;;9.45;70.03
73600;BME280;61877;48.246;9.220;2023-04-01T14:19:20;93028.97;;;9.23;71.82
73600;BME280;61877;48.246;9.220;2023-04-01T14:21:55;93025.56;;;9.03;70.20
73600;BME280;61877;48.246;9.220;2023-04-01T14:24:43;93032.53;;;9.49;68.81
73600;BME280;61877;48.246;9.220;2023-04-01T14:27:21;93047.34;;;9.43;69.66
73600;BME280;61877;48.246;9.220;2023-04-01T14:29:59;93029.31;;;9.40;69.53
73600;BME280;61877;48.246;9.220;2023-04-01T14:32:34;93027.31;;;9.56;69.46
73600;BME280;61877;48.246;9.220;2023-04-01T14:35:21;93026.16;;;9.35;69.41
73600;BME280;61877;48.246;9.220;2023-04-01T14:41:16;93029.00;;;9.45;69.94
73600;BME280;61877;48.246;9.220;2023-04-01T14:43:54;93036.44;;;9.33;70.26
73600;BME280;61877;48.246;9.220;2023-04-01T14:46:37;93037.50;;;9.70;71.02
73600;BME280;61877;48.246;9.220;2023-04-01T14:49:15;93045.53;;;9.28;69.31
73600;BME280;61877;48.246;9.220;2023-04-01T14:51:46;93044.81;;;9.12;69.47
73600;BME280;61877;48.246;9.220;2023-04-01T14:54:15;93041.69;;;9.06;68.03
73600;BME280;61877;48.246;9.220;2023-04-01T14:56:44;93040.34;;;8.97;69.62
73600;BME280;61877;48.246;9.220;2023-04-01T14:59:26;93038.16;;;8.83;70.13
73600;BME280;61877;48.246;9.220;2023-04-01T15:01:57;93036.78;;;8.74;70.33
73600;BME280;61877;48.246;9.220;2023-04-01T15:04:49;93040.81;;;9.02;69.81
73600;BME280;61877;48.246;9.220;2023-04-01T15:07:23;93034.38;;;9.03;69.92
73600;BME280;61877;48.246;9.220;2023-04-01T15:09:56;93040.94;;;8.90;69.89
73600;BME280;61877;48.246;9.220;2023-04-01T15:12:35;93041.81;;;9.13;70.57
73600;BME280;61877;48.246;9.220;2023-04-01T15:15:20;93055.59;;;9.15;70.06
73600;BME280;61877;48.246;9.220;2023-04-01T15:18:05;93048.00;;;9.18;69.46
73600;BME280;61877;48.246;9.220;2023-04-01T15:20:49;93042.66;;;9.18;69.41
73600;BME280;61877;48.246;9.220;2023-04-01T15:23:32;93051.94;;;9.24;69.48
73600;BME280;61877;48.246;9.220;2023-04-01T15:29:27;93046.97;;;9.03;70.57
73600;BME280;61877;48.246;9.220;2023-04-01T15:32:01;93056.69;;;8.92;69.38
73600;BME280;61877;48.246;9.220;2023-04-01T15:34:36;93063.69;;;8.81;70.55
73600;BME280;61877;48.246;9.220;2023-04-01T15:37:09;93058.13;;;8.89;71.33
73600;BME280;61877;48.246;9.220;2023-04-01T15:39:54;93061.78;;;8.81;71.51
73600;BME280;61877;48.246;9.220;2023-04-01T15:42:34;93056.72;;;8.76;71.54
73600;BME280;61877;48.246;9.220;2023-04-01T15:45:24;93070.81;;;8.73;72.17
73600;BME280;61877;48.246;9.220;2023-04-01T15:47:59;93073.00;;;8.87;72.08
73600;BME280;61877;48.246;9.220;2023-04-01T15:50:48;93057.00;;;8.71;71.93
73600;BME280;61877;48.246;9.220;2023-04-01T15:53:30;93065.59;;;8.80;71.21
73600;BME280;61877;48.246;9.220;2023-04-01T15:56:10;93073.19;;;8.78;71.19
73600;BME280;61877;48.246;9.220;2023-04-01T15:58:47;93075.44;;;8.76;71.62